Conway, NH

11:45 PM EDT on April 18, 2015 (GMT -0400)
RAWS | | Change Station
CLOSE
Current Station
Personal Weather Station
Location: Conway, NH
Elevation: 459 ft
Nearby Weather Stations

Elev 459 ft 43.98 °N, 71.14 °W | Updated 43 minutes ago

Overcast
Overcast
45 °F
Feels Like 43 °F
N
4
Wind Variable Wind from ENE
Gusts 17.0 mph

Today
High -- | Low -- °F
--% Chance of Precip.
Yesterday
High -- | Low -- °F
Precip. -- in
5:56 AM 7:31 PM
New Moon, 0% visible
Pressure 30.06 in
Visibility 10.0 miles
Clouds Scattered Clouds 5000 ft
Windchill 43 °F
Dew Point 31 °F
Humidity 57%
Rainfall in
Snow Depth Not available.
UV 0 out of 12
Pollen 7.00 out of 12
Air Quality Not available.
Flu Activity Regional
METAR KIZG 190254Z AUTO 00000KT 10SM SCT050 04/01 A3006 RMK AO2 SLP180 T00440011 51027

More Conditions Fewer Conditions

Pressure 30.06 in
Visibility 10.0 miles
Clouds Scattered Clouds 5000 ft
Windchill 43 °F
Dew Point 31 °F
Humidity 57%
Rainfall in
Snow Depth Not available.
UV 0 out of 12
Pollen 7.00 out of 12
Air Quality Not available.
Flu Activity Regional
METAR KIZG 190254Z AUTO 00000KT 10SM SCT050 04/01 A3006 RMK AO2 SLP180 T00440011 51027

More Conditions Fewer Conditions

10-Day Weather Forecast

Almanac

Astronomy

Apr. 18, 2015 Rise Set
Actual Time
Civil Twilight
Nautical Twilight
Astronomical Twilight
Moon
Length of Visible Light
Length of Day
Tomorrow will be .
, % of the Moon is Illuminated

Today's Extremes

State Highs State Lows

Community

WunderPhotos

Upload Photos

1,814,710 photos uploaded!

WunderBlogs® & News

Nearby

Air Quality

  Air Quality AQ Index Pollutant
Not available.

Snow Depth

Station Depth Elevation

Earthquake Activity

City Distance Mag. Time & Date
Minimum magnitude displayed is 2.5.

Coastal Water Temperatures

Place Temperature

Stations

Nearby Weather Stations

Station Location Temp. Windchill Dew Point Humidity Wind Precip. Elev Updated Type